createdAt,value
2023-03-02T00:01:53.704Z,16.95
2023-03-02T00:04:28.711Z,21.45
2023-03-02T00:06:59.583Z,16.33
2023-03-02T00:09:28.746Z,13.80
2023-03-02T00:11:57.881Z,14.55
2023-03-02T00:14:26.103Z,14.77
2023-03-02T00:16:54.350Z,16.42
2023-03-02T00:19:23.953Z,14.95
2023-03-02T00:21:52.116Z,14.55
2023-03-02T00:24:20.321Z,14.57
2023-03-02T00:26:48.527Z,13.85
2023-03-02T00:29:16.710Z,12.45
2023-03-02T00:31:45.008Z,13.93
2023-03-02T00:34:13.246Z,14.40
2023-03-02T00:36:43.139Z,17.65
2023-03-02T00:39:11.550Z,13.82
2023-03-02T00:41:39.705Z,15.90
2023-03-02T00:44:08.075Z,13.55
2023-03-02T00:46:36.423Z,11.65
2023-03-02T00:49:04.696Z,16.42
2023-03-02T00:51:32.924Z,13.48
2023-03-02T00:54:03.196Z,14.35
2023-03-02T00:56:31.830Z,15.68
2023-03-02T00:59:00.189Z,15.50
2023-03-02T01:01:28.435Z,16.27
2023-03-02T01:03:56.691Z,14.13
2023-03-02T01:06:24.964Z,18.38
2023-03-02T01:08:53.137Z,15.05
2023-03-02T01:11:24.001Z,13.40
2023-03-02T01:13:52.224Z,16.23
2023-03-02T01:16:20.513Z,15.05
2023-03-02T01:18:48.850Z,15.40
2023-03-02T01:21:17.763Z,15.93
2023-03-02T01:23:45.961Z,17.60
2023-03-02T01:26:14.167Z,12.82
2023-03-02T01:28:43.733Z,14.57
2023-03-02T01:31:11.915Z,15.75
2023-03-02T01:33:40.142Z,13.30
2023-03-02T01:36:09.305Z,15.35
2023-03-02T01:38:37.578Z,20.25
2023-03-02T01:41:06.335Z,18.13
2023-03-02T01:43:34.590Z,13.77
2023-03-02T01:46:06.086Z,14.38
2023-03-02T01:48:38.976Z,13.50
2023-03-02T01:51:09.590Z,17.63
2023-03-02T01:53:38.621Z,16.65
2023-03-02T01:56:07.856Z,16.83
2023-03-02T01:58:38.570Z,14.77
2023-03-02T02:01:15.454Z,15.20
2023-03-02T02:03:45.410Z,15.65
2023-03-02T02:06:19.602Z,15.43
2023-03-02T02:08:48.441Z,14.73
2023-03-02T02:11:16.663Z,19.95
2023-03-02T02:13:45.364Z,18.98
2023-03-02T02:16:15.309Z,16.52
2023-03-02T02:18:44.931Z,17.05
2023-03-02T02:21:14.328Z,15.68
2023-03-02T02:23:49.934Z,15.52
2023-03-02T02:26:24.702Z,16.15
2023-03-02T02:28:58.142Z,18.48
2023-03-02T02:31:32.735Z,16.65
2023-03-02T02:34:05.858Z,16.75
2023-03-02T02:36:39.716Z,16.15
2023-03-02T02:39:15.635Z,17.38
2023-03-02T02:41:47.671Z,19.27
2023-03-02T02:44:18.263Z,15.50
2023-03-02T02:46:46.727Z,15.30
2023-03-02T02:49:26.865Z,18.05
2023-03-02T02:51:55.112Z,16.25
2023-03-02T02:54:24.343Z,16.08
2023-03-02T02:56:55.304Z,13.45
2023-03-02T02:59:26.920Z,16.88
2023-03-02T03:01:55.729Z,15.23
2023-03-02T03:04:27.675Z,15.57
2023-03-02T03:06:58.090Z,17.42
2023-03-02T03:09:26.722Z,14.60
2023-03-02T03:11:58.359Z,19.13
2023-03-02T03:14:30.389Z,15.80
2023-03-02T03:16:58.750Z,17.95
2023-03-02T03:19:28.930Z,14.85
2023-03-02T03:22:00.052Z,15.93
2023-03-02T03:24:30.321Z,16.08
2023-03-02T03:27:00.389Z,16.17
2023-03-02T03:29:30.570Z,18.20
2023-03-02T03:32:00.172Z,13.32
2023-03-02T03:34:28.850Z,16.83
2023-03-02T03:37:01.711Z,14.07
2023-03-02T03:39:30.129Z,17.08
2023-03-02T03:41:59.748Z,14.70
2023-03-02T03:44:28.134Z,14.45
2023-03-02T03:46:56.412Z,14.68
2023-03-02T03:49:24.972Z,14.02
2023-03-02T03:51:53.282Z,16.15
2023-03-02T03:54:21.509Z,19.13
2023-03-02T03:56:51.901Z,15.80
2023-03-02T03:59:24.182Z,13.35
2023-03-02T04:01:54.289Z,12.47
2023-03-02T04:04:25.507Z,12.63
2023-03-02T04:06:54.480Z,13.05
2023-03-02T04:09:23.150Z,12.93
2023-03-02T04:11:53.891Z,15.15
2023-03-02T04:14:24.837Z,13.52
2023-03-02T04:16:53.751Z,15.63
2023-03-02T04:19:22.377Z,13.57
2023-03-02T04:21:53.610Z,14.55
2023-03-02T04:24:23.899Z,12.68
2023-03-02T04:26:52.635Z,13.35
2023-03-02T04:29:21.054Z,14.38
2023-03-02T04:31:50.800Z,13.90
2023-03-02T04:34:19.311Z,16.98
2023-03-02T04:36:47.831Z,13.65
2023-03-02T04:39:17.480Z,19.85
2023-03-02T04:41:45.961Z,13.38
2023-03-02T04:44:14.787Z,14.68
2023-03-02T04:46:44.829Z,16.95
2023-03-02T04:49:14.947Z,12.93
2023-03-02T04:51:45.643Z,14.38
2023-03-02T04:54:16.913Z,14.48
2023-03-02T04:56:48.390Z,14.48
2023-03-02T04:59:16.786Z,15.10
2023-03-02T05:01:45.843Z,18.15
2023-03-02T05:04:16.299Z,16.13
2023-03-02T05:06:44.526Z,15.93
2023-03-02T05:09:13.091Z,16.15
2023-03-02T05:11:41.694Z,16.05
2023-03-02T05:14:12.525Z,13.38
2023-03-02T05:16:42.388Z,16.77
2023-03-02T05:19:12.651Z,16.08
2023-03-02T05:21:42.301Z,14.88
2023-03-02T05:24:10.663Z,15.30
2023-03-02T05:26:39.483Z,16.92
2023-03-02T05:29:08.126Z,14.95
2023-03-02T05:31:39.184Z,14.32
2023-03-02T05:34:09.924Z,14.77
2023-03-02T05:36:38.985Z,15.55
2023-03-02T05:39:10.158Z,20.05
2023-03-02T05:41:39.120Z,15.15
2023-03-02T05:44:09.557Z,16.60
2023-03-02T05:46:39.072Z,18.63
2023-03-02T05:49:07.402Z,14.63
2023-03-02T05:51:35.605Z,15.85
2023-03-02T05:54:03.924Z,15.10
2023-03-02T05:56:33.840Z,16.00
2023-03-02T05:59:02.276Z,16.77
2023-03-02T06:01:30.682Z,19.48
2023-03-02T06:03:59.075Z,16.20
2023-03-02T06:06:27.519Z,16.85
2023-03-02T06:08:55.712Z,19.75
2023-03-02T06:11:24.003Z,16.15
2023-03-02T06:13:53.607Z,16.65
2023-03-02T06:16:21.838Z,15.07
2023-03-02T06:18:50.068Z,18.10
2023-03-02T06:21:18.264Z,16.38
2023-03-02T06:23:46.506Z,14.20
2023-03-02T06:26:14.775Z,17.98
2023-03-02T06:28:52.092Z,25.23
2023-03-02T06:31:23.369Z,15.10
2023-03-02T06:33:51.751Z,35.40
2023-03-02T06:36:20.305Z,16.65
2023-03-02T06:38:48.599Z,19.25
2023-03-02T06:41:17.286Z,17.52
2023-03-02T06:43:45.678Z,18.02
2023-03-02T06:46:14.059Z,17.70
2023-03-02T06:48:43.912Z,15.43
2023-03-02T06:51:12.686Z,15.52
2023-03-02T06:53:40.942Z,16.77
2023-03-02T06:56:09.350Z,15.82
2023-03-02T06:58:37.800Z,12.90
2023-03-02T07:01:07.843Z,16.10
2023-03-02T07:03:36.950Z,13.15
2023-03-02T07:06:06.935Z,16.10
2023-03-02T07:08:36.001Z,15.35
2023-03-02T07:11:07.091Z,16.52
2023-03-02T07:13:35.329Z,16.20
2023-03-02T07:16:08.022Z,15.75
2023-03-02T07:18:36.322Z,14.98
2023-03-02T07:21:06.486Z,18.02
2023-03-02T07:23:35.169Z,15.88
2023-03-02T07:26:05.228Z,17.00
2023-03-02T07:28:33.441Z,15.77
2023-03-02T07:31:01.686Z,23.00
2023-03-02T07:33:30.158Z,17.02
2023-03-02T07:35:58.408Z,15.98
2023-03-02T07:38:28.251Z,31.83
2023-03-02T07:40:56.513Z,15.77
2023-03-02T07:43:26.560Z,15.88
2023-03-02T07:45:54.774Z,15.57
2023-03-02T07:48:23.502Z,18.52
2023-03-02T07:50:51.738Z,15.07
2023-03-02T07:53:19.939Z,13.82
2023-03-02T07:55:49.599Z,16.20
2023-03-02T07:58:17.915Z,14.93
2023-03-02T08:00:46.213Z,13.73
2023-03-02T08:03:14.563Z,14.77
2023-03-02T08:05:42.915Z,12.77
2023-03-02T08:08:11.323Z,13.63
2023-03-02T08:10:39.572Z,13.93
2023-03-02T08:13:09.334Z,14.98
2023-03-02T08:15:37.691Z,13.68
2023-03-02T08:18:06.087Z,18.48
2023-03-02T08:20:34.270Z,16.63
2023-03-02T08:23:02.468Z,14.93
2023-03-02T08:25:30.705Z,13.30
2023-03-02T08:27:59.145Z,14.77
2023-03-02T08:30:28.867Z,14.75
2023-03-02T08:32:57.050Z,16.40
2023-03-02T08:35:25.414Z,13.45
2023-03-02T08:37:54.162Z,15.93
2023-03-02T08:40:22.618Z,17.48
2023-03-02T08:42:56.930Z,15.55
2023-03-02T08:45:25.543Z,13.30
2023-03-02T08:47:55.880Z,15.40
2023-03-02T08:50:24.124Z,12.65
2023-03-02T08:52:52.331Z,13.75
2023-03-02T08:55:20.609Z,18.10
2023-03-02T08:57:49.127Z,13.32
2023-03-02T09:00:18.883Z,12.55
2023-03-02T09:02:47.146Z,13.00
2023-03-02T09:05:16.899Z,14.20
2023-03-02T09:07:45.509Z,11.70
2023-03-02T09:10:13.751Z,15.43
2023-03-02T09:12:41.972Z,15.18
2023-03-02T09:15:10.744Z,15.93
2023-03-02T09:17:39.067Z,14.90
2023-03-02T09:20:08.831Z,13.40
2023-03-02T09:22:38.423Z,13.15
2023-03-02T09:25:08.046Z,13.15
2023-03-02T09:27:36.258Z,14.27
2023-03-02T09:30:04.665Z,14.10
2023-03-02T09:32:33.149Z,12.00
2023-03-02T09:35:01.463Z,12.77
2023-03-02T09:37:30.179Z,12.10
2023-03-02T09:39:59.847Z,12.82
2023-03-02T09:42:44.500Z,18.38
2023-03-02T09:45:26.745Z,13.52
2023-03-02T09:48:06.501Z,12.73
2023-03-02T09:50:37.047Z,15.40
2023-03-02T09:53:26.194Z,14.80
2023-03-02T09:56:00.298Z,15.25
2023-03-02T09:58:35.089Z,11.20
2023-03-02T10:01:08.034Z,19.77
2023-03-02T10:03:41.904Z,11.13
2023-03-02T10:06:10.623Z,12.45
2023-03-02T10:08:40.834Z,15.15
2023-03-02T10:11:20.322Z,12.73
2023-03-02T10:13:53.074Z,14.23
2023-03-02T10:16:31.364Z,13.77
2023-03-02T10:19:07.674Z,11.45
2023-03-02T10:21:40.242Z,11.27
2023-03-02T10:24:17.702Z,12.95
2023-03-02T10:26:52.050Z,10.88
2023-03-02T10:29:43.773Z,13.02
2023-03-02T10:32:32.965Z,15.05
2023-03-02T10:35:03.420Z,12.00
2023-03-02T10:37:32.363Z,12.60
2023-03-02T10:40:00.647Z,13.25
2023-03-02T10:42:33.266Z,10.15
2023-03-02T10:45:16.076Z,11.93
2023-03-02T10:47:44.394Z,10.70
2023-03-02T10:50:23.137Z,11.63
2023-03-02T10:52:59.924Z,11.68
2023-03-02T10:55:30.599Z,10.63
2023-03-02T10:58:07.129Z,13.02
2023-03-02T11:00:38.354Z,11.68
2023-03-02T11:03:26.453Z,12.10
2023-03-02T11:05:58.439Z,10.38
2023-03-02T11:08:31.737Z,10.52
2023-03-02T11:13:34.311Z,9.30
2023-03-02T11:16:04.905Z,9.57
2023-03-02T11:18:38.497Z,9.63
2023-03-02T11:21:11.562Z,9.95
2023-03-02T11:23:50.138Z,8.68
2023-03-02T11:26:24.798Z,7.95
2023-03-02T11:29:01.959Z,9.38
2023-03-02T11:31:39.339Z,8.20
2023-03-02T11:34:21.319Z,10.60
2023-03-02T11:37:03.565Z,8.38
2023-03-02T11:39:56.043Z,9.13
2023-03-02T11:42:30.087Z,8.23
2023-03-02T11:45:02.904Z,10.20
2023-03-02T11:47:34.759Z,11.90
2023-03-02T11:50:06.411Z,9.35
2023-03-02T11:52:39.924Z,9.85
2023-03-02T11:55:18.607Z,10.38
2023-03-02T11:57:50.116Z,11.23
2023-03-02T12:00:29.744Z,11.27
2023-03-02T12:03:02.695Z,11.25
2023-03-02T12:05:35.851Z,9.88
2023-03-02T12:10:37.316Z,8.52
2023-03-02T12:13:16.626Z,9.57
2023-03-02T12:15:48.017Z,8.40
2023-03-02T12:18:32.334Z,9.70
2023-03-02T12:21:03.586Z,8.95
2023-03-02T12:23:33.908Z,10.50
2023-03-02T12:26:09.492Z,11.07
2023-03-02T12:28:40.533Z,8.95
2023-03-02T12:31:13.824Z,8.70
2023-03-02T12:33:48.598Z,9.88
2023-03-02T12:36:22.187Z,9.20
2023-03-02T12:39:03.009Z,10.30
2023-03-02T12:41:53.033Z,9.70
2023-03-02T12:44:34.666Z,8.35
2023-03-02T12:47:09.338Z,9.88
2023-03-02T12:49:52.269Z,8.45
2023-03-02T12:52:27.528Z,10.57
2023-03-02T12:55:04.583Z,9.85
2023-03-02T12:57:33.033Z,8.10
2023-03-02T13:00:04.655Z,9.00
2023-03-02T13:02:35.932Z,8.40
2023-03-02T13:05:06.780Z,11.35
2023-03-02T13:07:38.239Z,8.70
2023-03-02T13:10:16.235Z,7.88
2023-03-02T13:12:46.866Z,11.18
2023-03-02T13:15:17.812Z,11.02
2023-03-02T13:17:55.132Z,9.20
2023-03-02T13:20:26.494Z,12.55
2023-03-02T13:22:55.344Z,11.65
2023-03-02T13:25:26.942Z,13.70
2023-03-02T13:27:57.452Z,9.38
2023-03-02T13:30:28.815Z,8.38
2023-03-02T13:33:03.304Z,11.88
2023-03-02T13:35:33.837Z,9.98
2023-03-02T13:38:05.751Z,13.23
2023-03-02T13:40:40.715Z,9.73
2023-03-02T13:43:22.944Z,8.93
2023-03-02T13:45:56.470Z,12.18
2023-03-02T13:48:27.826Z,7.65
2023-03-02T13:50:58.462Z,8.60
2023-03-02T13:53:27.370Z,8.75
2023-03-02T13:55:56.192Z,8.90
2023-03-02T13:58:26.419Z,8.35
2023-03-02T14:00:54.833Z,6.82
2023-03-02T14:03:27.283Z,6.57
2023-03-02T14:05:56.675Z,6.88
2023-03-02T14:08:25.259Z,12.52
2023-03-02T14:10:57.271Z,7.57
2023-03-02T14:13:30.250Z,6.78
2023-03-02T14:15:59.027Z,5.85
2023-03-02T14:18:40.396Z,5.65
2023-03-02T14:21:13.533Z,6.47
2023-03-02T14:26:32.924Z,6.90
2023-03-02T14:29:05.801Z,5.57
2023-03-02T14:34:04.986Z,6.85
2023-03-02T14:36:35.359Z,5.43
2023-03-02T14:39:06.879Z,7.43
2023-03-02T14:41:52.637Z,5.63
2023-03-02T14:44:22.046Z,5.05
2023-03-02T14:46:50.785Z,6.15
2023-03-02T14:49:20.741Z,4.85
2023-03-02T14:51:57.025Z,4.57
2023-03-02T14:54:25.368Z,4.30
2023-03-02T14:57:06.234Z,4.15
2023-03-02T14:59:34.528Z,5.68
2023-03-02T15:02:15.740Z,4.15
2023-03-02T15:04:53.294Z,4.40
2023-03-02T15:07:23.753Z,5.70
2023-03-02T15:09:52.006Z,3.72
2023-03-02T15:12:20.269Z,3.85
2023-03-02T15:14:48.526Z,4.68
2023-03-02T15:17:16.853Z,3.17
2023-03-02T15:19:45.062Z,4.40
2023-03-02T15:22:14.866Z,4.15
2023-03-02T15:24:43.417Z,4.53
2023-03-02T15:27:11.667Z,4.07
2023-03-02T15:29:39.926Z,5.45
2023-03-02T15:32:08.358Z,5.38
2023-03-02T15:34:37.150Z,5.30
2023-03-02T15:37:05.478Z,6.70
2023-03-02T15:39:35.128Z,5.60
2023-03-02T15:42:03.390Z,4.07
2023-03-02T15:44:31.711Z,5.88
2023-03-02T15:47:01.672Z,4.72
2023-03-02T15:49:32.892Z,6.68
2023-03-02T15:52:01.312Z,5.25
2023-03-02T15:54:29.909Z,5.18
2023-03-02T15:56:59.624Z,5.65
2023-03-02T15:59:29.631Z,4.00
2023-03-02T16:01:59.429Z,5.38
2023-03-02T16:04:33.196Z,5.18
2023-03-02T16:07:01.739Z,4.20
2023-03-02T16:09:30.992Z,6.28
2023-03-02T16:12:02.442Z,4.55
2023-03-02T16:14:30.640Z,6.85
2023-03-02T16:16:58.841Z,5.10
2023-03-02T16:19:27.040Z,5.00
2023-03-02T16:21:55.325Z,11.85
2023-03-02T16:24:23.554Z,5.15
2023-03-02T16:26:54.862Z,5.70
2023-03-02T16:29:24.736Z,5.75
2023-03-02T16:31:53.102Z,6.38
2023-03-02T16:34:21.384Z,8.73
2023-03-02T16:36:49.566Z,5.82
2023-03-02T16:39:17.779Z,6.75
2023-03-02T16:41:56.770Z,6.30
2023-03-02T16:44:26.476Z,13.07
2023-03-02T16:46:57.034Z,6.22
2023-03-02T16:49:25.865Z,6.55
2023-03-02T16:51:58.950Z,9.77
2023-03-02T16:54:27.205Z,4.80
2023-03-02T16:56:55.577Z,5.53
2023-03-02T16:59:25.322Z,4.38
2023-03-02T17:01:53.738Z,5.68
2023-03-02T17:04:22.093Z,5.22
2023-03-02T17:07:05.696Z,7.13
2023-03-02T17:09:36.474Z,6.57
2023-03-02T17:12:05.465Z,8.07
2023-03-02T17:14:35.273Z,4.75
2023-03-02T17:17:03.527Z,8.70
2023-03-02T17:19:31.792Z,5.03
2023-03-02T17:22:03.612Z,6.03
2023-03-02T17:24:32.466Z,11.30
2023-03-02T17:27:04.276Z,7.13
2023-03-02T17:29:36.435Z,7.35
2023-03-02T17:32:04.852Z,6.60
2023-03-02T17:34:33.109Z,4.95
2023-03-02T17:37:01.696Z,5.30
2023-03-02T17:39:30.468Z,6.45
2023-03-02T17:41:59.250Z,5.20
2023-03-02T17:44:27.604Z,5.15
2023-03-02T17:46:57.283Z,5.05
2023-03-02T17:49:25.659Z,5.18
2023-03-02T17:51:54.062Z,7.55
2023-03-02T17:54:22.390Z,5.25
2023-03-02T17:56:50.860Z,10.40
2023-03-02T17:59:19.448Z,6.05
2023-03-02T18:01:47.643Z,7.65
2023-03-02T18:04:17.630Z,11.07
2023-03-02T18:06:54.151Z,11.23
2023-03-02T18:09:22.465Z,15.90
2023-03-02T18:11:50.952Z,13.82
2023-03-02T18:14:22.704Z,9.32
2023-03-02T18:16:51.294Z,11.15
2023-03-02T18:19:21.114Z,16.85
2023-03-02T18:21:49.428Z,10.60
2023-03-02T18:24:17.756Z,7.97
2023-03-02T18:26:46.319Z,7.15
2023-03-02T18:29:14.601Z,5.78
2023-03-02T18:31:43.012Z,6.82
2023-03-02T18:34:13.001Z,5.88
2023-03-02T18:36:42.755Z,8.40
2023-03-02T18:39:12.121Z,6.85
2023-03-02T18:41:41.239Z,7.68
2023-03-02T18:44:10.139Z,10.57
2023-03-02T18:46:38.539Z,9.73
2023-03-02T18:49:08.475Z,6.45
2023-03-02T18:51:37.273Z,4.28
2023-03-02T18:54:07.617Z,5.18
2023-03-02T18:56:35.847Z,5.63
2023-03-02T18:59:05.729Z,6.82
2023-03-02T19:01:34.080Z,5.97
2023-03-02T19:04:05.115Z,7.78
2023-03-02T19:06:33.520Z,6.28
2023-03-02T19:09:01.894Z,7.13
2023-03-02T19:11:31.570Z,6.38
2023-03-02T19:13:59.792Z,6.65
2023-03-02T19:16:28.025Z,9.27
2023-03-02T19:18:56.299Z,7.53
2023-03-02T19:21:24.530Z,8.35
2023-03-02T19:23:52.836Z,6.78
2023-03-02T19:26:21.082Z,6.70
2023-03-02T19:28:50.842Z,6.65
2023-03-02T19:31:19.532Z,6.78
2023-03-02T19:33:47.872Z,7.25
2023-03-02T19:36:17.213Z,16.80
2023-03-02T19:38:45.591Z,9.32
2023-03-02T19:41:15.826Z,8.38
2023-03-02T19:43:46.010Z,9.23
2023-03-02T19:46:16.876Z,14.55
2023-03-02T19:48:45.420Z,35.83
2023-03-02T19:51:15.098Z,46.85
2023-03-02T19:53:45.980Z,39.17
2023-03-02T19:56:16.238Z,26.73
2023-03-02T19:58:49.858Z,11.68
2023-03-02T20:01:24.743Z,8.77
2023-03-02T20:03:54.350Z,10.02
2023-03-02T20:06:24.084Z,8.32
2023-03-02T20:08:52.576Z,43.97
2023-03-02T20:11:21.372Z,48.95
2023-03-02T20:13:50.655Z,40.83
2023-03-02T20:16:22.980Z,28.25
2023-03-02T20:18:51.646Z,13.43
2023-03-02T20:21:21.297Z,11.45
2023-03-02T20:23:50.568Z,8.80
2023-03-02T20:26:18.878Z,7.45
2023-03-02T20:28:47.380Z,8.00
2023-03-02T20:31:16.335Z,7.15
2023-03-02T20:33:49.623Z,7.55
2023-03-02T20:36:24.063Z,10.27
2023-03-02T20:38:55.676Z,7.90
2023-03-02T20:41:24.185Z,7.90
2023-03-02T20:43:53.955Z,8.50
2023-03-02T20:46:26.079Z,8.63
2023-03-02T20:48:55.741Z,11.80
2023-03-02T20:51:24.981Z,11.25
2023-03-02T20:53:53.286Z,8.32
2023-03-02T20:56:22.410Z,6.65
2023-03-02T20:58:51.311Z,7.20
2023-03-02T21:01:21.081Z,10.18
2023-03-02T21:03:49.315Z,8.70
2023-03-02T21:06:19.060Z,7.72
2023-03-02T21:08:47.608Z,8.90
2023-03-02T21:11:21.748Z,7.85
2023-03-02T21:13:50.774Z,9.57
2023-03-02T21:16:21.311Z,7.30
2023-03-02T21:18:49.689Z,11.10
2023-03-02T21:21:23.044Z,11.05
2023-03-02T21:23:53.278Z,10.70
2023-03-02T21:26:22.435Z,8.07
2023-03-02T21:28:50.645Z,10.68
2023-03-02T21:31:19.621Z,8.57
2023-03-02T21:33:49.623Z,10.20
2023-03-02T21:36:22.932Z,9.40
2023-03-02T21:41:20.827Z,9.85
2023-03-02T21:43:49.671Z,10.23
2023-03-02T21:46:23.233Z,11.63
2023-03-02T21:48:52.719Z,12.18
2023-03-02T21:51:22.403Z,13.18
2023-03-02T21:53:52.971Z,14.05
2023-03-02T21:56:23.069Z,14.23
2023-03-02T21:58:52.785Z,13.52
2023-03-02T22:01:21.367Z,12.75
2023-03-02T22:03:50.258Z,15.73
2023-03-02T22:06:22.041Z,14.95
2023-03-02T22:08:50.608Z,14.50
2023-03-02T22:11:23.529Z,18.77
2023-03-02T22:13:57.094Z,18.88
2023-03-02T22:16:27.216Z,20.38
2023-03-02T22:18:58.253Z,17.95
2023-03-02T22:21:34.316Z,17.95
2023-03-02T22:24:15.634Z,23.10
2023-03-02T22:26:48.647Z,23.60
2023-03-02T22:29:24.165Z,23.05
2023-03-02T22:31:54.513Z,23.55
2023-03-02T22:34:27.674Z,23.15
2023-03-02T22:37:02.560Z,24.52
2023-03-02T22:39:34.554Z,21.58
2023-03-02T22:42:12.602Z,23.98
2023-03-02T22:44:40.886Z,25.42
2023-03-02T22:47:16.185Z,26.98
2023-03-02T22:49:44.615Z,24.13
2023-03-02T22:52:18.037Z,26.75
2023-03-02T22:54:46.749Z,31.35
2023-03-02T22:57:31.798Z,34.88
2023-03-02T23:00:35.635Z,42.47
2023-03-02T23:03:17.997Z,43.60
2023-03-02T23:05:51.949Z,41.67
2023-03-02T23:08:25.957Z,29.75
2023-03-02T23:10:57.875Z,28.52
2023-03-02T23:13:32.855Z,30.00
2023-03-02T23:16:04.233Z,34.45
2023-03-02T23:18:37.470Z,31.08
2023-03-02T23:21:14.126Z,31.42
2023-03-02T23:23:44.834Z,31.25
2023-03-02T23:26:19.818Z,29.80
2023-03-02T23:28:49.601Z,28.33
2023-03-02T23:31:19.632Z,32.83
2023-03-02T23:33:48.760Z,28.20
2023-03-02T23:36:17.935Z,32.92
2023-03-02T23:38:48.381Z,30.13
2023-03-02T23:41:17.591Z,33.83
2023-03-02T23:43:46.544Z,32.60
2023-03-02T23:46:15.567Z,34.13
2023-03-02T23:48:44.741Z,33.05
2023-03-02T23:51:13.555Z,30.70
2023-03-02T23:53:42.438Z,32.33
2023-03-02T23:56:12.926Z,32.15
2023-03-02T23:58:41.876Z,31.45
